Time;durP1;ratioP1;P1;durP2;ratioP2;P2;SDS_P1;SDS_P2;PMS_P1;PMS_P2;Temp;Humidity;BMP_temperature;BMP_pressure;BME280_temperature;BME280_humidity;BME280_pressure;Samples;Min_cycle;Max_cycle;Signal;HPM_P1;HPM_P2
2023/05/12 00:01:23;;;;;;;5.30;3.50;;;;;;;10.98;40.83;100989.31;4851071;28;20528;-57
2023/05/12 00:03:56;;;;;;;5.70;3.50;;;;;;;10.93;41.39;100991.09;4848580;28;20049;-58
2023/05/12 00:06:27;;;;;;;6.80;3.58;;;;;;;10.97;43.88;100957.91;4845470;28;20120;-58
2023/05/12 00:08:57;;;;;;;5.32;3.70;;;;;;;11.54;43.69;100979.28;4846270;28;20054;-58
2023/05/12 00:11:28;;;;;;;4.68;3.63;;;;;;;11.74;40.49;100975.59;4849095;28;20054;-58
2023/05/12 00:13:58;;;;;;;6.40;3.30;;;;;;;11.60;40.38;100973.97;4847009;28;20060;-57
2023/05/12 00:16:29;;;;;;;7.45;3.75;;;;;;;11.47;40.22;100982.81;4847590;28;20550;-57
2023/05/12 00:19:01;;;;;;;10.13;3.50;;;;;;;11.59;41.13;100982.72;4848726;28;20135;-57
2023/05/12 00:21:32;;;;;;;6.15;3.78;;;;;;;11.75;42.09;100977.31;4846420;28;20557;-58
2023/05/12 00:24:02;;;;;;;8.85;3.60;;;;;;;12.01;40.44;100975.34;4854859;28;20436;-58
2023/05/12 00:26:33;;;;;;;7.53;4.15;;;;;;;11.95;42.58;100975.41;4852176;28;20062;-58
2023/05/12 00:29:03;;;;;;;5.40;3.72;;;;;;;12.27;42.83;100967.19;4850173;28;20482;-57
2023/05/12 00:31:34;;;;;;;8.93;3.88;;;;;;;12.47;43.13;100969.56;4850030;28;20061;-58
2023/05/12 00:34:06;;;;;;;6.43;4.18;;;;;;;12.85;43.54;100969.91;4848602;28;20060;-57
2023/05/12 00:36:37;;;;;;;7.90;3.88;;;;;;;12.81;42.43;100958.63;4848132;28;20526;-58
2023/05/12 00:39:07;;;;;;;8.65;3.92;;;;;;;12.94;41.99;100960.16;4848354;28;20053;-58
2023/05/12 00:41:38;;;;;;;7.15;4.20;;;;;;;12.88;41.44;100957.66;4848290;28;20068;-58
2023/05/12 00:44:08;;;;;;;6.90;3.53;;;;;;;13.12;42.69;100955.53;4849007;28;20060;-58
2023/05/12 00:46:39;;;;;;;7.25;4.18;;;;;;;13.25;41.37;100954.41;4848698;28;20092;-58
2023/05/12 00:49:13;;;;;;;5.45;3.88;;;;;;;13.06;40.79;100937.25;4848310;28;20137;-57
2023/05/12 00:51:44;;;;;;;7.18;3.95;;;;;;;13.24;40.49;100959.72;4807405;28;20053;-57
2023/05/12 00:54:15;;;;;;;8.35;3.85;;;;;;;13.20;39.06;100951.00;4848248;28;20405;-58
2023/05/12 00:56:46;;;;;;;17.05;4.70;;;;;;;13.34;39.82;100953.44;4847790;28;20053;-57
2023/05/12 00:59:16;;;;;;;9.43;4.47;;;;;;;13.53;41.60;100943.50;4848313;28;20412;-58
2023/05/12 01:01:50;;;;;;;6.65;4.47;;;;;;;13.77;41.53;100942.19;4846757;28;20057;-57
2023/05/12 01:04:23;;;;;;;10.00;4.30;;;;;;;13.93;40.67;100942.78;4847540;28;20559;-58
2023/05/12 01:06:58;;;;;;;8.93;4.78;;;;;;;13.64;38.61;100946.78;4838108;28;20046;-58
2023/05/12 01:09:29;;;;;;;5.43;3.63;;;;;;;13.65;39.32;100932.75;4847598;28;20050;-57
2023/05/12 01:11:59;;;;;;;5.85;3.15;;;;;;;13.49;36.85;100936.56;4847628;28;20049;-57
2023/05/12 01:14:30;;;;;;;5.47;3.55;;;;;;;13.23;39.48;100898.50;4857690;28;20082;-58
2023/05/12 01:17:03;;;;;;;4.88;2.85;;;;;;;12.98;35.15;100933.88;4847093;28;20050;-58
2023/05/12 01:19:42;;;;;;;2.92;2.30;;;;;;;12.41;36.24;100922.47;4838170;28;20188;-58
2023/05/12 01:22:13;;;;;;;5.03;2.60;;;;;;;12.35;36.84;100921.66;4843913;28;20584;-58
2023/05/12 01:24:48;;;;;;;4.53;2.80;;;;;;;12.37;36.99;100915.53;4848762;28;20059;-58
2023/05/12 01:27:22;;;;;;;3.75;2.63;;;;;;;12.00;36.29;100926.44;4845119;28;20058;-57
2023/05/12 01:29:54;;;;;;;4.13;2.88;;;;;;;11.91;37.74;100929.19;4840681;28;20139;-57
2023/05/12 01:32:25;;;;;;;3.42;2.70;;;;;;;11.99;37.86;100916.88;4846611;28;20130;-57
2023/05/12 01:34:55;;;;;;;4.93;2.47;;;;;;;12.15;38.21;100924.53;4848015;28;20058;-57
2023/05/12 01:37:27;;;;;;;5.82;3.13;;;;;;;11.95;37.79;100923.03;4848104;28;20081;-58
2023/05/12 01:39:57;;;;;;;4.85;2.55;;;;;;;12.03;36.87;100917.69;4848719;28;20091;-57
2023/05/12 01:42:29;;;;;;;3.70;2.78;;;;;;;12.20;37.39;100865.09;4847933;28;20067;-57
2023/05/12 01:45:00;;;;;;;4.50;3.10;;;;;;;12.84;38.37;100906.13;4845486;28;20050;-57
2023/05/12 01:47:30;;;;;;;16.17;3.05;;;;;;;13.24;37.67;100921.22;4847248;28;20547;-58
2023/05/12 01:50:00;;;;;;;6.85;2.67;;;;;;;13.17;36.72;100914.31;4846911;28;20050;-57
2023/05/12 01:52:31;;;;;;;6.25;2.63;;;;;;;12.80;36.30;100899.16;4847217;28;20075;-57
2023/05/12 01:55:02;;;;;;;4.70;2.90;;;;;;;12.38;37.42;100896.31;4846424;28;20056;-58
2023/05/12 01:57:37;;;;;;;3.83;2.70;;;;;;;11.90;37.30;100898.63;4854121;28;20051;-58
2023/05/12 02:00:09;;;;;;;5.43;2.70;;;;;;;11.89;37.49;100891.69;4846844;28;20050;-58
2023/05/12 02:02:43;;;;;;;5.90;3.00;;;;;;;12.15;37.63;100893.09;4846892;28;20637;-58
2023/05/12 02:05:13;;;;;;;4.18;2.55;;;;;;;12.43;37.55;100884.00;4838519;28;20078;-57
2023/05/12 02:07:43;;;;;;;4.85;2.80;;;;;;;12.62;38.36;100884.59;4846009;28;20132;-58
2023/05/12 02:10:14;;;;;;;10.93;3.20;;;;;;;12.90;38.15;100887.66;4846990;28;20455;-57
2023/05/12 02:12:46;;;;;;;3.10;2.35;;;;;;;12.99;37.69;100888.41;4845003;28;20143;-58
2023/05/12 02:15:16;;;;;;;3.35;2.72;;;;;;;13.19;37.68;100886.31;4844804;28;20058;-58
2023/05/12 02:17:49;;;;;;;4.22;2.75;;;;;;;13.35;35.95;100871.19;4846000;28;20048;-58
2023/05/12 02:20:19;;;;;;;4.30;2.47;;;;;;;13.19;36.49;100881.06;4846625;28;20539;-57
2023/05/12 02:22:50;;;;;;;3.50;2.78;;;;;;;12.95;37.90;100871.84;4846711;28;20064;-58
2023/05/12 02:25:21;;;;;;;7.82;2.50;;;;;;;13.10;37.13;100875.97;4846998;28;20124;-58
2023/05/12 02:27:53;;;;;;;4.43;3.00;;;;;;;13.09;37.71;100874.25;4847204;28;20053;-58
2023/05/12 02:30:23;;;;;;;3.70;2.83;;;;;;;12.95;36.19;100866.59;4838492;28;21049;-58
2023/05/12 02:32:57;;;;;;;4.38;2.58;;;;;;;13.09;37.02;100866.38;4849825;28;20053;-58
2023/05/12 02:35:27;;;;;;;3.78;2.45;;;;;;;13.54;38.75;100855.97;4850313;28;20092;-57
2023/05/12 02:37:58;;;;;;;3.58;2.58;;;;;;;14.01;37.62;100862.03;4851031;28;20049;-57
2023/05/12 02:40:28;;;;;;;4.50;2.90;;;;;;;14.17;37.01;100862.56;4851779;28;20060;-58
2023/05/12 02:43:00;;;;;;;8.05;2.63;;;;;;;14.44;37.00;100866.34;4849656;28;20049;-58
2023/05/12 02:45:31;;;;;;;5.53;2.72;;;;;;;14.54;35.61;100857.38;4850175;28;20054;-58
2023/05/12 02:48:01;;;;;;;5.05;2.80;;;;;;;14.63;35.85;100851.91;4849048;28;20383;-58
2023/05/12 02:50:32;;;;;;;5.00;2.80;;;;;;;14.81;36.32;100855.00;4847228;28;20082;-59
2023/05/12 02:53:02;;;;;;;6.93;2.73;;;;;;;14.64;35.81;100858.03;4855359;28;20106;-58
2023/05/12 02:55:33;;;;;;;4.65;2.60;;;;;;;14.35;35.48;100840.25;4855434;28;20715;-58
2023/05/12 02:58:05;;;;;;;9.10;3.38;;;;;;;14.22;35.99;100851.03;4851804;28;20055;-58
2023/05/12 03:00:35;;;;;;;4.80;3.03;;;;;;;14.35;36.90;100845.50;4849767;28;20056;-58
2023/05/12 03:03:06;;;;;;;6.15;2.92;;;;;;;14.75;37.71;100836.72;4849830;28;20920;-58
2023/05/12 03:05:37;;;;;;;3.53;2.33;;;;;;;15.19;37.63;100834.72;4850029;28;20116;-57
2023/05/12 03:08:07;;;;;;;5.17;2.60;;;;;;;15.25;36.48;100829.28;4849946;28;20444;-58
2023/05/12 03:10:38;;;;;;;3.57;2.70;;;;;;;15.02;34.08;100828.13;4850315;28;20370;-58
2023/05/12 03:13:10;;;;;;;3.60;2.73;;;;;;;14.72;34.22;100823.66;4849572;28;20304;-58
2023/05/12 03:15:41;;;;;;;3.77;2.20;;;;;;;14.44;31.99;100829.53;4849664;28;20639;-58
2023/05/12 03:18:11;;;;;;;7.30;2.10;;;;;;;14.54;34.36;100827.59;4849546;28;20289;-58
2023/05/12 03:20:42;;;;;;;3.80;2.50;;;;;;;14.93;34.57;100828.38;4847713;28;20753;-58
2023/05/12 03:23:12;;;;;;;3.43;2.30;;;;;;;14.81;31.68;100823.44;4857159;28;20301;-58
2023/05/12 03:25:43;;;;;;;2.67;2.30;;;;;;;14.64;33.51;100827.31;4854203;28;20369;-59
2023/05/12 03:28:15;;;;;;;16.87;2.50;;;;;;;14.74;34.03;100821.84;4851518;28;21741;-58
2023/05/12 03:30:45;;;;;;;4.93;3.10;;;;;;;15.14;35.28;100820.84;4849085;28;20284;-58
2023/05/12 03:33:15;;;;;;;3.33;2.63;;;;;;;15.46;35.42;100819.97;4849334;28;20620;-58
2023/05/12 03:35:46;;;;;;;8.17;2.37;;;;;;;15.65;34.90;100817.66;4849441;28;20292;-58
2023/05/12 03:38:16;;;;;;;5.90;2.97;;;;;;;15.60;34.48;100811.66;4849319;28;20281;-58
2023/05/12 03:40:51;;;;;;;5.20;3.00;;;;;;;15.50;35.18;100814.56;4849342;28;20348;-58
2023/05/12 03:43:24;;;;;;;3.80;2.50;;;;;;;15.36;35.54;100803.56;4849788;28;20362;-58
2023/05/12 03:45:54;;;;;;;5.10;2.90;;;;;;;15.16;33.63;100795.34;4838893;28;20356;-58
2023/05/12 03:48:24;;;;;;;5.97;3.20;;;;;;;15.34;35.40;100808.00;4848659;28;20710;-58
2023/05/12 03:50:55;;;;;;;4.40;2.67;;;;;;;15.41;33.30;100804.28;4849224;28;20288;-58
2023/05/12 03:53:25;;;;;;;3.43;2.33;;;;;;;15.43;35.61;100802.47;4848659;28;20328;-58
2023/05/12 03:55:56;;;;;;;7.90;2.90;;;;;;;15.42;33.30;100802.50;4850643;28;20296;-58
2023/05/12 03:58:28;;;;;;;4.27;2.80;;;;;;;15.42;34.94;100790.19;4849053;28;20292;-58
2023/05/12 04:01:00;;;;;;;5.97;3.23;;;;;;;15.28;35.17;100784.47;4847814;28;20368;-58
2023/05/12 04:03:31;;;;;;;3.93;2.87;;;;;;;14.70;34.00;100743.91;4848010;28;21388;-58
2023/05/12 04:06:02;;;;;;;3.90;2.50;;;;;;;14.38;34.77;100724.53;4849947;28;20285;-58
2023/05/12 04:08:33;;;;;;;4.33;2.47;;;;;;;15.00;35.08;100793.13;4842564;28;20283;-58
2023/05/12 04:11:03;;;;;;;5.03;3.20;;;;;;;15.20;35.49;100791.69;4858414;28;20286;-58
2023/05/12 04:13:35;;;;;;;4.63;2.53;;;;;;;15.28;33.97;100771.31;4852888;28;20309;-57
2023/05/12 04:16:07;;;;;;;4.23;2.60;;;;;;;14.96;34.66;100752.00;4853846;28;20288;-58
2023/05/12 04:18:37;;;;;;;6.10;3.00;;;;;;;15.37;34.40;100768.41;4851642;28;20684;-58
2023/05/12 04:21:08;;;;;;;4.53;2.47;;;;;;;15.44;33.96;100777.84;4851942;28;20289;-58
2023/05/12 04:23:39;;;;;;;4.40;2.70;;;;;;;15.36;33.51;100769.31;4852163;28;20691;-57
2023/05/12 04:26:09;;;;;;;4.47;2.87;;;;;;;15.44;35.46;100772.59;4853235;28;20351;-58
2023/05/12 04:28:41;;;;;;;6.03;2.53;;;;;;;15.75;33.70;100771.75;4851179;28;20285;-58
2023/05/12 04:31:12;;;;;;;3.17;2.20;;;;;;;15.52;31.45;100754.81;4852772;28;20293;-58
2023/05/12 04:33:42;;;;;;;4.07;2.50;;;;;;;15.57;33.85;100761.72;4845764;28;20298;-59
2023/05/12 04:36:16;;;;;;;4.40;2.23;;;;;;;15.73;33.92;100757.75;4851512;28;20387;-58
2023/05/12 04:38:47;;;;;;;3.40;2.50;;;;;;;15.58;32.73;100747.66;4850740;28;20285;-58
2023/05/12 04:41:17;;;;;;;4.63;2.50;;;;;;;15.59;33.80;100741.47;4847283;28;20300;-58
2023/05/12 04:43:49;;;;;;;3.80;2.60;;;;;;;15.31;33.81;100744.91;4847516;28;20347;-58
2023/05/12 04:46:23;;;;;;;4.20;2.67;;;;;;;15.15;34.20;100748.84;4840874;28;20289;-58
2023/05/12 04:48:54;;;;;;;7.37;3.20;;;;;;;15.48;35.89;100747.91;4849427;28;20285;-58
2023/05/12 04:51:24;;;;;;;5.07;2.50;;;;;;;15.42;33.38;100742.81;4847495;28;20285;-57
2023/05/12 04:53:55;;;;;;;3.27;2.57;;;;;;;15.58;34.70;100742.38;4847120;28;20288;-58
2023/05/12 04:56:28;;;;;;;4.60;2.63;;;;;;;15.80;35.50;100727.69;4848500;28;20296;-58
2023/05/12 04:59:00;;;;;;;8.83;3.33;;;;;;;15.74;34.93;100688.34;4848375;28;20281;-58
2023/05/12 05:01:31;;;;;;;4.40;2.60;;;;;;;15.95;34.05;100736.91;4847629;28;20350;-58
2023/05/12 05:04:01;;;;;;;5.20;2.97;;;;;;;15.99;33.53;100732.38;4847184;28;20292;-58
2023/05/12 05:06:32;;;;;;;3.50;2.30;;;;;;;15.87;33.66;100733.63;4846563;28;20339;-58
2023/05/12 05:09:02;;;;;;;7.10;3.17;;;;;;;15.79;34.41;100731.22;4854963;28;20301;-58
2023/05/12 05:11:33;;;;;;;4.30;2.87;;;;;;;15.89;34.27;100727.38;4850545;28;20274;-58
2023/05/12 05:14:05;;;;;;;6.10;2.63;;;;;;;15.45;33.06;100695.34;4849140;28;20291;-59
2023/05/12 05:16:35;;;;;;;7.77;2.57;;;;;;;15.52;34.53;100723.22;4847720;28;20382;-58
2023/05/12 05:19:06;;;;;;;11.67;3.10;;;;;;;15.50;34.30;100730.28;4844743;28;20289;-58
2023/05/12 05:21:50;;;;;;;6.20;2.93;;;;;;;15.59;34.80;100723.03;4836447;28;20296;-58
2023/05/12 05:24:21;;;;;;;4.83;2.50;;;;;;;15.79;34.12;100719.81;4846870;28;21094;-58
2023/05/12 05:26:52;;;;;;;4.27;2.63;;;;;;;15.60;33.90;100714.19;4843579;28;20702;-59
2023/05/12 05:29:25;;;;;;;4.37;2.50;;;;;;;15.61;34.24;100723.84;4850601;28;20736;-58
2023/05/12 05:31:55;;;;;;;7.40;3.50;;;;;;;15.69;35.27;100719.19;4846973;28;20320;-58
2023/05/12 05:34:26;;;;;;;7.40;3.30;;;;;;;15.88;35.14;100720.41;4848265;28;20298;-58
2023/05/12 05:36:57;;;;;;;5.83;2.53;;;;;;;15.89;33.28;100716.84;4845387;28;20305;-58
2023/05/12 05:39:29;;;;;;;5.97;2.50;;;;;;;15.50;33.09;100724.13;4847144;28;20384;-58
2023/05/12 05:42:00;;;;;;;7.20;3.00;;;;;;;15.34;34.68;100718.47;4847786;28;20276;-58
2023/05/12 05:44:32;;;;;;;7.17;3.10;;;;;;;15.30;34.77;100711.56;4847701;28;20285;-58
2023/05/12 05:47:03;;;;;;;6.50;2.60;;;;;;;15.24;35.48;100703.84;4843628;28;20740;-59
2023/05/12 05:49:33;;;;;;;3.03;2.30;;;;;;;15.19;34.47;100708.38;4850002;28;20287;-58
2023/05/12 05:52:04;;;;;;;3.50;2.40;;;;;;;14.95;34.97;100725.69;4847880;28;20289;-58
2023/05/12 05:54:34;;;;;;;6.43;2.53;;;;;;;14.95;35.73;100713.44;4846671;28;20274;-60
2023/05/12 05:57:05;;;;;;;3.70;2.43;;;;;;;15.00;35.39;100714.16;4846504;28;20290;-57
2023/05/12 05:59:37;;;;;;;5.27;2.83;;;;;;;15.12;36.22;100712.94;4847325;28;20367;-58
2023/05/12 06:02:08;;;;;;;6.03;2.20;;;;;;;15.26;35.79;100708.16;4846944;28;20296;-58
2023/05/12 06:04:38;;;;;;;4.07;2.50;;;;;;;15.31;34.97;100714.16;4847646;28;20280;-58
2023/05/12 06:07:09;;;;;;;4.97;2.50;;;;;;;15.00;34.71;100708.91;4851450;28;20335;-57
2023/05/12 06:09:39;;;;;;;4.47;2.67;;;;;;;14.80;36.13;100709.44;4851393;28;20384;-58
2023/05/12 06:12:10;;;;;;;20.87;4.00;;;;;;;14.53;37.17;100712.78;4850309;28;20751;-58
2023/05/12 06:14:42;;;;;;;4.60;2.30;;;;;;;14.75;37.15;100713.06;4850903;28;20372;-58
2023/05/12 06:17:12;;;;;;;5.30;2.80;;;;;;;14.96;37.39;100709.88;4845918;28;20290;-58
2023/05/12 06:19:46;;;;;;;8.10;2.87;;;;;;;14.88;37.56;100711.88;4853889;28;20329;-58
2023/05/12 06:22:17;;;;;;;4.63;2.70;;;;;;;14.90;38.35;100712.66;4851451;28;20288;-58
2023/05/12 06:24:47;;;;;;;7.20;2.70;;;;;;;15.03;38.51;100714.06;4850598;28;20285;-58
2023/05/12 06:27:17;;;;;;;5.77;2.27;;;;;;;15.01;37.03;100723.78;4850108;28;20312;-59
2023/05/12 06:29:51;;;;;;;4.43;2.60;;;;;;;14.88;37.08;100714.50;4850926;28;20272;-58
2023/05/12 06:32:22;;;;;;;4.23;2.50;;;;;;;14.92;37.62;100723.16;4847979;28;20297;-59
2023/05/12 06:34:52;;;;;;;5.13;2.40;;;;;;;14.96;36.57;100732.72;4856551;28;20341;-58
2023/05/12 06:37:23;;;;;;;8.83;5.53;;;;;;;14.91;37.29;100735.47;4854710;28;20294;-59
2023/05/12 06:39:53;;;;;;;19.37;4.70;;;;;;;15.03;36.01;100740.41;4852511;28;20296;-59
2023/05/12 06:42:24;;;;;;;12.87;3.87;;;;;;;14.99;35.93;100744.00;4850307;28;20281;-58
2023/05/12 06:44:56;;;;;;;5.87;3.23;;;;;;;14.98;35.88;100737.03;4850413;28;20763;-58
2023/05/12 06:47:26;;;;;;;6.03;2.27;;;;;;;14.90;36.28;100738.97;4850503;28;20289;-58
2023/05/12 06:49:57;;;;;;;10.93;2.87;;;;;;;14.85;37.22;100740.88;4851008;28;20299;-59
2023/05/12 06:52:27;;;;;;;8.83;3.43;;;;;;;14.51;38.00;100683.88;4851246;28;20848;-58
2023/05/12 06:54:58;;;;;;;6.40;3.13;;;;;;;14.74;37.79;100740.31;4845812;28;20520;-58
2023/05/12 06:57:28;;;;;;;6.07;2.37;;;;;;;14.73;36.56;100746.47;4850575;28;20923;-58
2023/05/12 07:00:02;;;;;;;4.83;2.67;;;;;;;14.43;36.17;100746.31;4850169;28;20340;-58
2023/05/12 07:02:34;;;;;;;7.57;2.47;;;;;;;14.20;37.20;100747.72;4845806;28;20309;-58
2023/05/12 07:05:05;;;;;;;8.53;2.50;;;;;;;14.15;37.05;100749.59;4850343;28;20285;-59
2023/05/12 07:07:36;;;;;;;8.20;2.93;;;;;;;13.79;37.94;100678.59;4850300;28;20281;-58
2023/05/12 07:10:07;;;;;;;5.47;2.60;;;;;;;13.90;37.06;100756.28;4849999;28;20324;-58
2023/05/12 07:12:38;;;;;;;4.80;3.07;;;;;;;13.66;38.04;100734.94;4849134;28;20285;-57
2023/05/12 07:15:11;;;;;;;7.80;2.77;;;;;;;13.91;38.02;100750.16;4849659;28;20930;-58
2023/05/12 07:17:42;;;;;;;5.05;2.30;;;;;;;13.86;38.34;100752.03;4847980;28;20289;-59
2023/05/12 07:20:13;;;;;;;7.53;2.50;;;;;;;13.96;37.92;100754.41;4842612;28;20097;-58
2023/05/12 07:22:46;;;;;;;5.75;2.70;;;;;;;13.88;37.98;100744.94;4838974;28;20286;-58
2023/05/12 07:25:16;;;;;;;9.37;2.70;;;;;;;13.97;39.12;100750.00;4837652;28;20667;-58
2023/05/12 07:27:48;;;;;;;4.40;2.70;;;;;;;13.85;39.33;100755.53;4836005;28;20609;-58
2023/05/12 07:30:21;;;;;;;6.73;2.57;;;;;;;13.92;39.26;100752.72;4836211;28;20344;-58
2023/05/12 07:32:51;;;;;;;5.43;2.80;;;;;;;13.94;39.05;100750.09;4835633;28;20308;-58
2023/05/12 07:35:22;;;;;;;5.40;2.78;;;;;;;13.80;38.10;100753.88;4833903;28;20062;-58
2023/05/12 07:37:52;;;;;;;5.63;3.60;;;;;;;13.75;39.54;100739.09;4840971;28;20647;-58
2023/05/12 07:40:23;;;;;;;11.60;3.03;;;;;;;13.70;41.14;100747.06;4840306;28;20361;-59
2023/05/12 07:42:53;;;;;;;6.22;3.50;;;;;;;13.80;41.50;100747.75;4837694;28;20085;-58
2023/05/12 07:45:25;;;;;;;6.63;3.03;;;;;;;13.81;40.94;100760.84;4836203;28;20054;-57
2023/05/12 07:47:58;;;;;;;10.30;3.03;;;;;;;13.66;41.32;100755.94;4835131;28;20120;-58
2023/05/12 07:50:29;;;;;;;5.82;3.35;;;;;;;13.68;42.02;100759.41;4836251;28;20065;-58
2023/05/12 07:53:00;;;;;;;6.90;3.93;;;;;;;13.66;42.52;100761.19;4835690;28;20077;-58
2023/05/12 07:55:32;;;;;;;11.05;3.03;;;;;;;13.59;42.48;100749.94;4835894;28;20290;-57
2023/05/12 07:58:02;;;;;;;14.63;3.10;;;;;;;13.57;42.86;100756.97;4832176;28;20466;-57
2023/05/12 08:00:34;;;;;;;5.03;3.70;;;;;;;13.62;43.60;100754.25;4840311;28;20055;-58
2023/05/12 08:03:07;;;;;;;11.70;4.20;;;;;;;13.76;43.42;100752.22;4835870;28;20385;-58
2023/05/12 08:05:38;;;;;;;6.83;3.60;;;;;;;13.59;43.67;100728.06;4835387;28;20368;-58
2023/05/12 08:08:15;;;;;;;8.13;4.05;;;;;;;13.67;44.78;100752.41;4835262;28;20273;-58
2023/05/12 08:10:45;;;;;;;5.85;3.45;;;;;;;13.59;44.77;100760.44;4824414;28;20058;-58
2023/05/12 08:13:16;;;;;;;6.30;3.22;;;;;;;13.46;44.61;100758.13;4835462;28;20050;-58
2023/05/12 08:15:49;;;;;;;12.05;3.78;;;;;;;13.27;44.98;100768.97;4835126;28;20485;-58
2023/05/12 08:18:20;;;;;;;13.07;4.57;;;;;;;13.26;45.37;100767.22;4838247;28;20057;-58
2023/05/12 08:20:50;;;;;;;11.85;4.68;;;;;;;13.24;45.58;100768.13;4847648;28;20625;-58
2023/05/12 08:23:20;;;;;;;6.95;3.67;;;;;;;13.31;46.06;100769.78;4846930;28;20090;-58
2023/05/12 08:25:51;;;;;;;34.17;5.25;;;;;;;13.30;45.87;100773.28;4848000;28;20548;-57
2023/05/12 08:28:21;;;;;;;9.02;4.80;;;;;;;13.27;45.72;100770.72;4846963;28;20058;-58
2023/05/12 08:30:53;;;;;;;10.57;4.50;;;;;;;13.32;45.99;100767.13;4846684;28;20481;-58
2023/05/12 08:33:24;;;;;;;6.82;4.07;;;;;;;13.30;45.95;100768.91;4847320;28;20061;-58
2023/05/12 08:35:55;;;;;;;6.35;3.30;;;;;;;13.25;45.95;100775.97;4848106;28;20145;-58
2023/05/12 08:38:25;;;;;;;9.25;4.47;;;;;;;13.28;46.49;100765.47;4847798;28;20405;-58
2023/05/12 08:41:14;;;;;;;5.68;3.50;;;;;;;13.18;45.81;100769.13;4847802;28;20470;-58
2023/05/12 08:43:46;;;;;;;8.55;3.90;;;;;;;13.00;46.32;100764.22;4837896;28;20061;-58
2023/05/12 08:46:18;;;;;;;10.63;4.82;;;;;;;12.92;46.86;100752.09;4847921;28;20058;-58
2023/05/12 08:48:52;;;;;;;10.40;4.25;;;;;;;12.82;47.14;100753.16;4846676;28;20052;-58
2023/05/12 08:51:24;;;;;;;6.90;4.13;;;;;;;12.71;47.33;100757.75;4840660;28;20051;-57
2023/05/12 08:53:57;;;;;;;8.00;3.58;;;;;;;12.63;47.77;100756.97;4847904;28;20054;-58
2023/05/12 08:56:28;;;;;;;9.77;4.28;;;;;;;12.56;47.91;100758.00;4847262;28;20049;-58
2023/05/12 08:59:04;;;;;;;10.05;4.30;;;;;;;12.54;48.32;100759.78;4847249;28;20085;-58
2023/05/12 09:01:41;;;;;;;8.25;4.00;;;;;;;12.33;48.39;100738.28;4837385;28;20101;-58
2023/05/12 09:04:14;;;;;;;8.02;3.97;;;;;;;12.36;48.80;100751.31;4845768;28;20051;-58
2023/05/12 09:06:45;;;;;;;5.63;3.80;;;;;;;12.35;49.12;100761.81;4846897;28;20519;-58
2023/05/12 09:09:19;;;;;;;9.80;4.50;;;;;;;12.27;49.44;100761.94;4847393;28;20346;-58
2023/05/12 09:11:53;;;;;;;8.55;4.60;;;;;;;12.16;49.86;100758.63;4847296;28;20612;-58
2023/05/12 09:14:26;;;;;;;8.80;4.60;;;;;;;12.13;49.89;100770.03;4839757;28;20530;-58
2023/05/12 09:17:01;;;;;;;12.60;6.50;;;;;;;11.96;50.27;100765.03;4847510;28;20062;-58
2023/05/12 09:19:37;;;;;;;8.95;4.20;;;;;;;11.76;50.64;100761.78;4845713;28;20063;-58
2023/05/12 09:22:13;;;;;;;8.63;4.75;;;;;;;11.51;51.04;100764.72;4846841;28;20381;-58
2023/05/12 09:24:45;;;;;;;7.25;4.30;;;;;;;11.35;51.79;100752.69;4837471;28;20807;-58
2023/05/12 09:27:26;;;;;;;7.63;4.25;;;;;;;10.97;52.38;100704.28;4847364;28;20050;-58
2023/05/12 09:29:57;;;;;;;8.60;4.15;;;;;;;10.99;52.79;100746.97;4836674;28;20450;-57
2023/05/12 09:32:36;;;;;;;12.35;4.72;;;;;;;10.68;53.44;100710.66;4846613;28;20084;-58
2023/05/12 09:35:09;;;;;;;7.35;4.60;;;;;;;10.68;54.34;100764.69;4836852;28;20136;-58
2023/05/12 09:37:40;;;;;;;6.75;4.75;;;;;;;10.55;54.70;100779.59;4845983;28;20053;-58
2023/05/12 09:40:12;;;;;;;8.70;4.70;;;;;;;10.31;55.69;100788.50;4846080;28;20058;-57
2023/05/12 09:43:06;;;;;;;12.05;4.97;;;;;;;10.09;56.27;100774.69;4836361;28;20476;-58
2023/05/12 09:45:42;;;;;;;11.88;4.63;;;;;;;9.98;56.88;100782.56;4836675;28;20097;-58
2023/05/12 09:48:15;;;;;;;11.15;6.40;;;;;;;9.82;57.28;100787.00;4840115;28;20059;-58
2023/05/12 09:50:47;;;;;;;15.00;5.20;;;;;;;9.71;57.82;100778.38;4846815;28;20054;-58
2023/05/12 09:53:17;;;;;;;9.75;4.30;;;;;;;9.54;57.89;100770.63;4846686;28;20050;-58
2023/05/12 09:55:49;;;;;;;11.98;4.72;;;;;;;9.55;58.56;100792.34;4847188;28;20054;-59
2023/05/12 09:58:20;;;;;;;6.13;4.07;;;;;;;9.07;58.50;100725.56;4846272;28;20061;-59
2023/05/12 10:00:54;;;;;;;11.20;4.15;;;;;;;9.46;59.06;100788.91;4847043;28;20481;-59
2023/05/12 10:03:53;;;;;;;9.50;4.70;;;;;;;9.42;58.95;100797.59;4826230;28;20045;-57
2023/05/12 10:06:32;;;;;;;8.75;4.80;;;;;;;9.15;59.38;100797.69;4835759;28;20100;-58
2023/05/12 10:09:09;;;;;;;9.98;4.85;;;;;;;9.00;60.16;100794.22;4840330;28;21231;-58
2023/05/12 10:11:41;;;;;;;8.00;4.53;;;;;;;8.93;60.49;100812.47;4846384;28;20069;-57
2023/05/12 10:14:18;;;;;;;10.95;5.00;;;;;;;8.79;60.72;100794.25;4843890;28;20059;-58
2023/05/12 10:16:52;;;;;;;8.77;5.38;;;;;;;8.71;61.51;100811.59;4844900;28;20482;-56
2023/05/12 10:19:26;;;;;;;9.70;4.88;;;;;;;8.55;62.34;100814.22;4849135;28;20054;-57
2023/05/12 10:21:58;;;;;;;8.93;4.80;;;;;;;8.53;62.89;100823.75;4846299;28;20053;-57
2023/05/12 10:24:32;;;;;;;14.20;5.25;;;;;;;8.46;62.68;100816.81;4845475;28;21337;-55
2023/05/12 10:27:07;;;;;;;12.25;6.22;;;;;;;8.36;62.99;100815.91;4850794;28;20426;-58
2023/05/12 10:29:39;;;;;;;15.55;5.60;;;;;;;8.12;63.57;100806.31;4846885;28;20054;-57
2023/05/12 10:32:13;;;;;;;17.23;6.65;;;;;;;8.14;64.00;100830.63;4846822;28;20057;-57
2023/05/12 10:34:49;;;;;;;19.38;10.82;;;;;;;8.00;64.49;100819.28;4837785;28;20546;-57
2023/05/12 10:37:25;;;;;;;36.60;20.33;;;;;;;8.04;64.74;100833.16;4836987;28;20054;-57
2023/05/12 10:40:02;;;;;;;30.20;14.70;;;;;;;8.09;64.37;100827.13;4846620;28;20046;-56
2023/05/12 10:42:42;;;;;;;15.40;8.27;;;;;;;7.95;64.57;100819.28;4842132;28;20059;-56
2023/05/12 10:45:21;;;;;;;13.38;7.25;;;;;;;7.91;65.06;100842.66;4843359;28;20054;-57
2023/05/12 10:47:52;;;;;;;13.98;7.63;;;;;;;7.75;65.85;100846.94;4843250;28;20070;-56
2023/05/12 10:50:31;;;;;;;15.65;7.57;;;;;;;7.60;66.26;100845.16;4850591;28;20055;-58
2023/05/12 10:53:03;;;;;;;22.75;10.77;;;;;;;7.57;66.94;100837.34;4850047;28;20053;-57
2023/05/12 10:55:36;;;;;;;15.70;9.05;;;;;;;7.64;66.76;100844.31;4841306;28;20053;-57
2023/05/12 10:58:12;;;;;;;20.40;7.93;;;;;;;7.46;66.51;100850.28;4850210;28;20054;-57
2023/05/12 11:00:50;;;;;;;8.73;5.60;;;;;;;7.11;66.86;100843.13;4842331;28;20058;-57
2023/05/12 11:03:25;;;;;;;12.02;5.55;;;;;;;6.81;67.81;100840.28;4849313;28;20405;-58
2023/05/12 11:06:08;;;;;;;12.23;5.80;;;;;;;6.68;68.34;100847.97;4849854;28;20050;-57
2023/05/12 11:08:48;;;;;;;9.70;5.47;;;;;;;6.60;68.79;100872.13;4837377;28;20062;-58
2023/05/12 11:11:23;;;;;;;19.73;5.78;;;;;;;5.64;69.40;100756.03;4849498;28;20058;-57
2023/05/12 11:13:54;;;;;;;27.02;6.93;;;;;;;6.01;70.15;100848.13;4841856;28;20144;-57
2023/05/12 11:16:24;;;;;;;18.80;6.68;;;;;;;6.16;70.55;100882.91;4850561;28;20060;-57
2023/05/12 11:19:03;;;;;;;14.40;6.88;;;;;;;5.72;71.17;100837.41;4849178;28;20495;-57
2023/05/12 11:21:36;;;;;;;14.18;7.50;;;;;;;5.65;71.78;100842.50;4840447;28;20045;-57
2023/05/12 11:24:09;;;;;;;20.00;7.05;;;;;;;5.68;72.51;100873.63;4849420;28;20161;-57
2023/05/12 11:26:43;;;;;;;14.00;7.15;;;;;;;5.72;72.71;100896.19;4842942;28;20051;-58
2023/05/12 11:29:14;;;;;;;14.98;6.57;;;;;;;5.48;73.24;100902.75;4849595;28;20050;-57
2023/05/12 11:31:51;;;;;;;11.50;6.28;;;;;;;4.83;74.06;100812.81;4850568;28;20373;-57
2023/05/12 11:34:23;;;;;;;12.07;6.90;;;;;;;5.25;74.33;100898.94;4847772;28;20054;-58
2023/05/12 11:36:57;;;;;;;11.13;6.53;;;;;;;5.13;75.12;100894.44;4849515;28;20077;-57
2023/05/12 11:39:29;;;;;;;12.88;6.05;;;;;;;4.74;75.39;100829.09;4849070;28;20068;-57
2023/05/12 11:42:13;;;;;;;12.75;6.00;;;;;;;4.88;75.89;100867.28;4849211;28;20050;-57
2023/05/12 11:44:49;;;;;;;13.43;6.55;;;;;;;5.08;76.56;100907.31;4838702;28;20053;-57
2023/05/12 11:47:21;;;;;;;15.57;6.78;;;;;;;5.07;76.99;100895.22;4848455;28;20100;-57